Time;durP1;ratioP1;P1;durP2;ratioP2;P2;SDS_P1;SDS_P2;PMS_P1;PMS_P2;Temp;Humidity;BMP_temperature;BMP_pressure;BME280_temperature;BME280_humidity;BME280_pressure;Samples;Min_cycle;Max_cycle;Signal;HPM_P1;HPM_P2
2023/07/29 00:01:51;;;;;;;4.90;2.28;;;23.00;76.50;;;;;;5015226;28;20044;-72
2023/07/29 00:04:17;;;;;;;3.15;2.28;;;23.00;76.80;;;;;;5015593;28;20032;-71
2023/07/29 00:06:43;;;;;;;2.58;2.30;;;23.00;77.00;;;;;;5015542;28;20133;-71
2023/07/29 00:09:08;;;;;;;3.65;2.30;;;23.00;77.00;;;;;;5015039;28;20558;-72
2023/07/29 00:11:34;;;;;;;3.42;2.25;;;22.90;77.00;;;;;;5015487;28;20025;-72
2023/07/29 00:14:01;;;;;;;2.83;2.53;;;22.90;77.20;;;;;;5014981;28;20033;-72
2023/07/29 00:16:27;;;;;;;3.15;2.50;;;22.90;77.40;;;;;;5015704;28;20034;-72
2023/07/29 00:18:52;;;;;;;2.67;2.20;;;22.90;77.40;;;;;;4997154;28;20072;-72
2023/07/29 00:21:18;;;;;;;4.03;2.55;;;22.90;77.70;;;;;;5015034;28;20049;-72
2023/07/29 00:23:43;;;;;;;3.35;2.33;;;22.90;77.70;;;;;;5015022;28;20022;-73
2023/07/29 00:26:09;;;;;;;4.63;2.90;;;22.90;77.90;;;;;;5014820;28;20135;-72
2023/07/29 00:28:34;;;;;;;4.78;2.50;;;22.80;78.10;;;;;;5015123;28;20034;-73
2023/07/29 00:31:00;;;;;;;2.83;2.30;;;22.80;78.20;;;;;;5014716;28;20037;-73
2023/07/29 00:33:26;;;;;;;6.13;2.50;;;22.90;78.20;;;;;;5015406;28;20109;-72
2023/07/29 00:35:51;;;;;;;3.55;2.70;;;22.80;78.30;;;;;;5014860;28;20386;-74
2023/07/29 00:38:17;;;;;;;6.82;2.45;;;22.90;78.50;;;;;;4981211;28;20041;-72
2023/07/29 00:40:42;;;;;;;4.03;2.33;;;22.90;78.50;;;;;;5014858;28;20022;-71
2023/07/29 00:43:08;;;;;;;3.72;2.78;;;22.80;78.60;;;;;;5014479;28;20044;-72
2023/07/29 00:45:34;;;;;;;3.25;2.45;;;22.80;78.70;;;;;;5015239;28;20096;-72
2023/07/29 00:48:02;;;;;;;3.85;2.75;;;22.80;79.00;;;;;;5014201;28;20053;-72
2023/07/29 00:50:29;;;;;;;2.92;2.50;;;22.80;79.70;;;;;;5014575;28;20026;-72
2023/07/29 00:52:56;;;;;;;3.17;2.28;;;22.80;79.30;;;;;;5014246;28;20088;-72
2023/07/29 00:55:21;;;;;;;3.80;2.92;;;22.80;79.30;;;;;;5014399;28;20038;-72
2023/07/29 00:57:49;;;;;;;4.22;2.60;;;22.80;79.20;;;;;;5014552;28;20044;-71
2023/07/29 01:00:15;;;;;;;4.43;2.53;;;22.80;79.40;;;;;;5014249;28;20018;-72
2023/07/29 01:02:43;;;;;;;3.55;2.50;;;22.80;79.40;;;;;;5014521;28;20109;-72
2023/07/29 01:05:11;;;;;;;4.28;2.80;;;22.70;79.50;;;;;;5014136;28;20486;-72
2023/07/29 01:07:51;;;;;;;4.22;2.65;;;22.80;79.70;;;;;;5012547;28;20552;-72
2023/07/29 01:10:46;;;;;;;3.00;2.60;;;22.80;79.80;;;;;;5013940;28;20040;-73
2023/07/29 01:13:30;;;;;;;3.92;2.97;;;22.70;79.90;;;;;;5010788;28;20100;-72
2023/07/29 01:16:01;;;;;;;4.07;2.55;;;22.70;79.90;;;;;;5013841;28;20081;-72
2023/07/29 01:18:31;;;;;;;3.13;2.40;;;22.70;80.10;;;;;;5014575;28;20026;-73
2023/07/29 01:21:03;;;;;;;6.57;2.65;;;22.70;80.20;;;;;;5013806;28;20048;-73
2023/07/29 01:23:33;;;;;;;4.32;2.88;;;22.70;80.50;;;;;;5014126;28;20488;-73
2023/07/29 01:25:59;;;;;;;6.57;2.92;;;22.70;80.60;;;;;;5013750;28;20391;-73
2023/07/29 01:28:25;;;;;;;3.90;2.60;;;22.70;80.70;;;;;;5013931;28;20042;-73
2023/07/29 01:30:59;;;;;;;3.78;2.55;;;22.70;80.60;;;;;;5014191;28;20053;-72
2023/07/29 01:33:40;;;;;;;4.90;2.85;;;22.70;81.10;;;;;;5014121;28;20026;-73
2023/07/29 01:36:09;;;;;;;;;;;22.70;81.00;;;;;;5013913;28;20064;-73
2023/07/29 01:38:37;;;;;;;3.13;2.70;;;22.60;80.90;;;;;;5013452;28;20324;-73
2023/07/29 01:41:06;;;;;;;4.00;2.63;;;22.60;81.00;;;;;;5013381;28;20025;-73
2023/07/29 01:43:33;;;;;;;3.92;2.58;;;22.60;81.00;;;;;;4995282;28;20156;-73
2023/07/29 01:46:00;;;;;;;4.13;2.42;;;22.60;81.20;;;;;;4993506;28;20443;-73
2023/07/29 01:48:27;;;;;;;3.15;2.67;;;22.60;81.50;;;;;;4994851;28;20041;-73
2023/07/29 01:50:53;;;;;;;5.05;2.60;;;22.50;81.80;;;;;;5013588;28;20156;-73
2023/07/29 01:53:18;;;;;;;3.78;2.90;;;22.50;81.80;;;;;;5013196;28;20057;-73
2023/07/29 01:55:44;;;;;;;4.25;2.83;;;22.60;81.90;;;;;;5013294;28;20097;-73
2023/07/29 01:58:10;;;;;;;6.43;2.30;;;22.50;82.10;;;;;;5013160;28;20052;-73
2023/07/29 02:00:36;;;;;;;3.15;2.85;;;22.50;82.30;;;;;;5013232;28;20419;-74
2023/07/29 02:03:01;;;;;;;3.90;2.90;;;22.50;82.80;;;;;;5012226;28;20026;-73
2023/07/29 02:05:27;;;;;;;3.28;2.75;;;22.50;82.90;;;;;;5013190;28;20027;-73
2023/07/29 02:07:53;;;;;;;3.63;3.00;;;22.50;83.10;;;;;;5012841;28;20077;-72
2023/07/29 02:10:18;;;;;;;5.45;2.97;;;22.40;83.40;;;;;;5012936;28;20061;-72
2023/07/29 02:12:44;;;;;;;4.47;2.78;;;22.40;83.60;;;;;;5012974;28;20025;-73
2023/07/29 02:15:09;;;;;;;3.65;2.83;;;22.40;83.60;;;;;;5012298;28;20038;-72
2023/07/29 02:17:36;;;;;;;5.55;2.83;;;22.40;83.40;;;;;;5013289;28;20049;-72
2023/07/29 02:20:03;;;;;;;4.90;2.65;;;22.40;83.30;;;;;;5012774;28;20021;-73
2023/07/29 02:22:29;;;;;;;3.55;2.30;;;22.40;82.50;;;;;;5013065;28;20092;-73
2023/07/29 02:24:54;;;;;;;4.70;2.67;;;22.40;81.90;;;;;;5013089;28;20026;-73
2023/07/29 02:27:20;;;;;;;3.90;2.75;;;22.40;81.70;;;;;;5012333;28;20444;-72
2023/07/29 02:29:45;;;;;;;4.00;2.47;;;22.40;81.50;;;;;;5012970;28;20021;-73
2023/07/29 02:32:11;;;;;;;5.90;2.40;;;22.30;81.30;;;;;;5012846;28;20351;-73
2023/07/29 02:34:37;;;;;;;4.22;2.47;;;22.40;81.10;;;;;;5013059;28;20160;-73
2023/07/29 02:37:02;;;;;;;3.50;2.72;;;22.30;81.10;;;;;;5012906;28;20374;-73
2023/07/29 02:39:28;;;;;;;2.75;2.40;;;22.20;80.50;;;;;;5012568;28;20034;-73
2023/07/29 02:41:55;;;;;;;2.47;2.20;;;22.20;80.90;;;;;;5012831;28;20042;-71
2023/07/29 02:44:21;;;;;;;4.07;2.60;;;22.20;80.80;;;;;;5012355;28;20061;-72
2023/07/29 02:46:46;;;;;;;3.30;2.45;;;22.20;80.10;;;;;;5012924;28;20352;-72
2023/07/29 02:49:12;;;;;;;2.95;2.20;;;22.20;79.60;;;;;;5012036;28;20034;-73
2023/07/29 02:51:38;;;;;;;3.90;2.65;;;22.20;78.60;;;;;;5012712;28;20033;-72
2023/07/29 02:54:03;;;;;;;2.72;2.10;;;22.10;78.60;;;;;;5012440;28;20032;-72
2023/07/29 02:56:30;;;;;;;3.15;2.10;;;22.10;78.80;;;;;;5012690;28;20050;-72
2023/07/29 02:58:56;;;;;;;2.72;2.00;;;22.10;78.60;;;;;;5012660;28;20124;-72
2023/07/29 03:01:24;;;;;;;2.97;2.20;;;22.10;78.10;;;;;;5012307;28;20307;-73
2023/07/29 03:03:51;;;;;;;2.97;1.90;;;22.10;77.90;;;;;;4998887;28;20092;-73
2023/07/29 03:06:16;;;;;;;2.17;1.65;;;22.10;77.10;;;;;;5010182;28;20379;-72
2023/07/29 03:08:42;;;;;;;1.85;1.67;;;22.00;76.00;;;;;;5012671;28;20034;-72
2023/07/29 03:11:14;;;;;;;3.20;2.05;;;22.00;75.70;;;;;;5009130;28;20038;-73
2023/07/29 03:13:40;;;;;;;2.15;1.70;;;22.10;75.20;;;;;;4975330;28;20061;-72
2023/07/29 03:16:10;;;;;;;2.42;1.80;;;22.10;75.10;;;;;;4996010;28;20549;-73
2023/07/29 03:18:37;;;;;;;2.40;2.03;;;22.10;74.90;;;;;;4978644;28;20038;-73
2023/07/29 03:21:03;;;;;;;2.00;1.70;;;22.10;74.70;;;;;;4996607;28;20252;-72
2023/07/29 03:23:30;;;;;;;2.50;1.98;;;22.00;74.60;;;;;;4996304;28;20165;-72
2023/07/29 03:26:00;;;;;;;2.90;2.03;;;22.00;74.80;;;;;;4996257;28;20149;-73
2023/07/29 03:28:27;;;;;;;3.67;1.80;;;22.00;74.80;;;;;;4990919;28;20062;-72
2023/07/29 03:30:54;;;;;;;2.70;1.80;;;22.00;74.80;;;;;;4996220;28;20675;-73
2023/07/29 03:33:19;;;;;;;3.25;1.88;;;22.10;74.80;;;;;;4995759;28;20459;-72
2023/07/29 03:35:45;;;;;;;1.63;1.50;;;22.10;74.70;;;;;;4978745;28;20085;-72
2023/07/29 03:38:11;;;;;;;2.58;2.00;;;22.10;74.50;;;;;;4995653;28;20018;-72
2023/07/29 03:40:38;;;;;;;1.60;1.45;;;22.10;74.60;;;;;;4996139;28;20493;-73
2023/07/29 03:43:04;;;;;;;2.08;1.73;;;22.10;74.60;;;;;;4996019;28;20026;-72
2023/07/29 03:45:30;;;;;;;2.40;1.80;;;22.00;74.80;;;;;;4996399;28;20375;-72
2023/07/29 03:47:56;;;;;;;1.88;1.63;;;22.00;74.90;;;;;;4995161;28;20048;-73
2023/07/29 03:50:21;;;;;;;3.10;2.00;;;22.00;75.00;;;;;;4992471;28;20039;-72
2023/07/29 03:52:47;;;;;;;2.80;2.03;;;22.00;75.30;;;;;;4996198;28;20026;-72
2023/07/29 03:55:12;;;;;;;2.35;1.60;;;22.00;75.40;;;;;;4994396;28;20463;-72
2023/07/29 03:57:38;;;;;;;2.15;1.73;;;22.00;75.40;;;;;;5000569;28;20027;-72
2023/07/29 04:00:04;;;;;;;3.00;2.00;;;22.00;75.60;;;;;;5000658;28;20395;-72
2023/07/29 04:02:30;;;;;;;2.67;1.98;;;22.00;76.20;;;;;;4996184;28;20430;-72
2023/07/29 04:04:56;;;;;;;3.28;2.15;;;22.00;75.80;;;;;;4997010;28;20029;-72
2023/07/29 04:07:21;;;;;;;2.90;1.90;;;22.00;76.10;;;;;;4994375;28;20431;-72
2023/07/29 04:09:47;;;;;;;2.50;2.08;;;22.00;76.00;;;;;;4996897;28;20028;-72
2023/07/29 04:12:13;;;;;;;2.85;2.15;;;22.00;76.20;;;;;;4994088;28;20100;-74
2023/07/29 04:14:38;;;;;;;3.00;2.20;;;22.00;76.10;;;;;;4994878;28;20042;-72
2023/07/29 04:17:04;;;;;;;2.35;1.90;;;22.00;76.80;;;;;;4994917;28;20030;-72
2023/07/29 04:19:30;;;;;;;2.55;1.92;;;22.00;76.00;;;;;;4995492;28;20049;-69
2023/07/29 04:21:55;;;;;;;5.38;1.95;;;22.00;76.00;;;;;;4997027;28;20106;-69
2023/07/29 04:24:23;;;;;;;2.08;1.75;;;22.00;75.90;;;;;;4996357;28;20058;-69
2023/07/29 04:26:49;;;;;;;3.45;2.15;;;22.00;75.80;;;;;;4996581;28;20029;-68
2023/07/29 04:29:14;;;;;;;2.10;1.60;;;22.10;75.80;;;;;;4995296;28;20037;-69
2023/07/29 04:31:40;;;;;;;2.30;1.88;;;22.10;75.70;;;;;;4995647;28;20129;-69
2023/07/29 04:34:06;;;;;;;2.30;1.50;;;22.10;75.70;;;;;;4995760;28;20026;-68
2023/07/29 04:36:31;;;;;;;2.75;2.08;;;22.10;75.50;;;;;;4995436;28;20522;-69
2023/07/29 04:38:57;;;;;;;2.35;1.80;;;22.10;75.50;;;;;;4995277;28;20037;-69
2023/07/29 04:41:22;;;;;;;3.75;1.98;;;22.10;75.80;;;;;;4977659;28;20030;-70
2023/07/29 04:43:49;;;;;;;3.00;2.05;;;22.10;75.70;;;;;;4995313;28;20030;-71
2023/07/29 04:46:15;;;;;;;3.50;1.90;;;22.10;75.80;;;;;;5014418;28;20037;-67
2023/07/29 04:48:41;;;;;;;5.22;1.85;;;22.10;75.90;;;;;;5011409;28;20323;-66
2023/07/29 04:51:06;;;;;;;2.63;1.90;;;22.10;75.90;;;;;;4997490;28;20061;-66
2023/07/29 04:53:32;;;;;;;2.50;2.22;;;22.10;75.90;;;;;;5014287;28;20144;-66
2023/07/29 04:55:58;;;;;;;2.03;1.67;;;22.10;76.10;;;;;;5014662;28;20112;-66
2023/07/29 04:58:23;;;;;;;2.15;1.80;;;22.10;76.10;;;;;;5010816;28;20042;-66
2023/07/29 05:00:49;;;;;;;2.90;2.08;;;22.10;76.10;;;;;;5014670;28;20034;-66
2023/07/29 05:03:15;;;;;;;3.13;2.20;;;22.10;75.80;;;;;;5014128;28;20032;-67
2023/07/29 05:05:40;;;;;;;2.67;2.15;;;22.10;75.80;;;;;;5014072;28;20045;-67
2023/07/29 05:08:06;;;;;;;2.80;2.20;;;22.10;75.80;;;;;;5014302;28;20459;-67
2023/07/29 05:10:32;;;;;;;2.83;1.77;;;22.10;75.70;;;;;;5014035;28;20035;-66
2023/07/29 05:12:57;;;;;;;2.38;1.95;;;22.20;75.80;;;;;;5014271;28;20026;-66
2023/07/29 05:15:23;;;;;;;2.25;1.88;;;22.20;75.70;;;;;;5013464;28;20352;-66
2023/07/29 05:17:48;;;;;;;2.40;2.20;;;22.20;75.50;;;;;;5014266;28;20030;-67
2023/07/29 05:20:14;;;;;;;2.45;1.85;;;22.30;75.40;;;;;;5013395;28;20514;-67
2023/07/29 05:22:40;;;;;;;2.60;1.80;;;22.30;75.30;;;;;;5014048;28;20117;-66
2023/07/29 05:25:06;;;;;;;1.92;1.67;;;22.30;75.10;;;;;;5014122;28;20033;-66
2023/07/29 05:27:31;;;;;;;2.95;1.92;;;22.40;75.00;;;;;;5012667;28;20034;-67
2023/07/29 05:29:57;;;;;;;2.58;1.90;;;22.40;75.30;;;;;;4976614;28;20073;-67
2023/07/29 05:32:23;;;;;;;2.25;1.90;;;22.40;75.20;;;;;;4993435;28;20023;-66
2023/07/29 05:34:48;;;;;;;1.90;1.65;;;22.40;75.30;;;;;;4993928;28;20595;-65
2023/07/29 05:37:14;;;;;;;3.25;1.85;;;22.50;75.30;;;;;;4989905;28;20025;-67
2023/07/29 05:39:39;;;;;;;2.95;1.70;;;22.60;75.00;;;;;;4994117;28;20027;-67
2023/07/29 05:42:05;;;;;;;2.22;2.03;;;22.60;75.00;;;;;;4994012;28;20033;-66
2023/07/29 05:44:31;;;;;;;1.67;1.27;;;22.70;74.70;;;;;;4993395;28;20235;-66
2023/07/29 05:46:57;;;;;;;2.97;1.70;;;22.70;74.70;;;;;;4993840;28;20460;-67
2023/07/29 05:49:23;;;;;;;2.10;1.70;;;22.80;74.70;;;;;;4990054;28;20070;-66
2023/07/29 05:51:50;;;;;;;1.85;1.55;;;22.80;74.60;;;;;;4993702;28;20392;-69
2023/07/29 05:54:17;;;;;;;1.75;1.50;;;22.80;74.40;;;;;;4993146;28;20018;-67
2023/07/29 05:56:43;;;;;;;2.38;1.90;;;22.90;74.50;;;;;;4993509;28;20052;-66
2023/07/29 05:59:08;;;;;;;2.45;1.67;;;22.90;74.30;;;;;;4993806;28;20105;-66
2023/07/29 06:01:34;;;;;;;2.40;1.90;;;22.90;74.40;;;;;;4993135;28;20034;-68
2023/07/29 06:04:00;;;;;;;2.70;1.88;;;22.90;74.40;;;;;;4993747;28;20022;-67
2023/07/29 06:06:26;;;;;;;2.08;1.55;;;22.90;74.30;;;;;;4993161;28;20578;-67
2023/07/29 06:08:52;;;;;;;4.45;1.70;;;23.00;74.40;;;;;;5008700;28;20080;-67
2023/07/29 06:11:18;;;;;;;2.83;1.80;;;23.00;74.40;;;;;;5008095;28;20058;-67
2023/07/29 06:13:43;;;;;;;2.30;1.80;;;23.00;74.60;;;;;;4976307;28;20030;-67
2023/07/29 06:16:09;;;;;;;3.33;2.40;;;23.10;74.30;;;;;;4993623;28;20034;-67
2023/07/29 06:18:34;;;;;;;5.55;1.58;;;23.20;73.80;;;;;;4992910;28;20030;-67
2023/07/29 06:21:00;;;;;;;2.00;1.50;;;23.30;73.60;;;;;;4993524;28;20033;-67
2023/07/29 06:23:26;;;;;;;2.78;1.60;;;23.40;73.20;;;;;;4993348;28;20034;-67
2023/07/29 06:25:51;;;;;;;2.20;1.33;;;23.50;73.00;;;;;;4993390;28;20033;-67
2023/07/29 06:28:17;;;;;;;1.35;1.25;;;23.60;72.70;;;;;;4992758;28;20034;-67
2023/07/29 06:30:42;;;;;;;1.65;1.52;;;23.60;72.20;;;;;;4993016;28;20134;-67
2023/07/29 06:33:09;;;;;;;1.50;1.38;;;23.60;72.30;;;;;;4993277;28;20457;-66
2023/07/29 06:35:34;;;;;;;5.60;1.60;;;23.60;72.50;;;;;;4992843;28;20026;-67
2023/07/29 06:38:00;;;;;;;1.95;1.48;;;23.50;72.90;;;;;;4993618;28;20027;-67
2023/07/29 06:40:26;;;;;;;2.63;1.80;;;23.40;72.70;;;;;;4992854;28;20105;-68
2023/07/29 06:42:51;;;;;;;4.13;1.20;;;23.50;72.80;;;;;;4992858;28;20022;-68
2023/07/29 06:45:17;;;;;;;1.95;1.30;;;23.50;72.70;;;;;;4992700;28;20422;-68
2023/07/29 06:47:43;;;;;;;1.67;1.20;;;23.50;72.40;;;;;;4992921;28;20023;-68
2023/07/29 06:50:09;;;;;;;1.85;1.48;;;23.50;72.50;;;;;;4993231;28;20100;-67
2023/07/29 06:52:36;;;;;;;2.05;1.60;;;23.60;72.40;;;;;;4992647;28;20077;-68
2023/07/29 06:55:02;;;;;;;1.70;1.33;;;23.60;72.70;;;;;;4992982;28;20033;-77
2023/07/29 06:57:28;;;;;;;3.30;1.70;;;23.60;72.40;;;;;;4994946;28;20026;-76
2023/07/29 06:59:53;;;;;;;2.10;1.40;;;23.70;72.30;;;;;;4992637;28;20080;-76
2023/07/29 07:02:19;;;;;;;2.70;1.60;;;23.80;71.80;;;;;;4991901;28;20084;-75
2023/07/29 07:04:45;;;;;;;1.45;1.30;;;23.80;71.90;;;;;;4992418;28;20042;-76
2023/07/29 07:07:10;;;;;;;2.35;1.33;;;23.80;72.20;;;;;;4992280;28;20050;-77
2023/07/29 07:09:36;;;;;;;1.98;1.38;;;23.80;72.00;;;;;;4992237;28;20034;-76
2023/07/29 07:12:02;;;;;;;2.70;1.60;;;23.80;71.10;;;;;;4992921;28;20041;-72
2023/07/29 07:14:27;;;;;;;1.67;1.40;;;23.90;71.40;;;;;;4992178;28;20482;-73
2023/07/29 07:16:53;;;;;;;2.15;1.65;;;23.90;71.40;;;;;;4992734;28;20030;-72
2023/07/29 07:19:18;;;;;;;2.35;1.58;;;23.90;71.70;;;;;;4992433;28;20097;-74
2023/07/29 07:21:44;;;;;;;2.20;1.65;;;23.90;71.90;;;;;;4992900;28;20023;-73
2023/07/29 07:24:10;;;;;;;2.05;1.52;;;24.00;71.90;;;;;;4992374;28;20034;-73
2023/07/29 07:26:35;;;;;;;1.70;1.40;;;24.00;71.70;;;;;;4992402;28;20081;-74
2023/07/29 07:29:01;;;;;;;3.25;1.70;;;24.00;71.50;;;;;;4992640;28;20030;-74
2023/07/29 07:31:27;;;;;;;2.55;1.42;;;24.20;71.20;;;;;;4992454;28;20026;-74
2023/07/29 07:33:52;;;;;;;1.90;1.33;;;24.40;71.50;;;;;;4992855;28;20063;-74
2023/07/29 07:36:18;;;;;;;3.58;1.92;;;24.60;70.20;;;;;;4992746;28;20101;-74
2023/07/29 07:38:43;;;;;;;1.45;1.30;;;25.10;68.80;;;;;;4990906;28;20034;-74
2023/07/29 07:41:09;;;;;;;1.25;1.10;;;25.30;67.40;;;;;;4992332;28;20058;-74
2023/07/29 07:43:35;;;;;;;3.45;1.58;;;25.50;66.80;;;;;;4992258;28;20507;-74
2023/07/29 07:46:01;;;;;;;2.13;1.40;;;25.70;66.30;;;;;;4991787;28;20041;-74
2023/07/29 07:48:28;;;;;;;1.73;1.40;;;26.00;67.10;;;;;;4992052;28;20038;-70
2023/07/29 07:50:53;;;;;;;1.77;1.30;;;26.60;64.70;;;;;;4992502;28;20035;-69
2023/07/29 07:53:19;;;;;;;1.75;1.50;;;27.10;63.70;;;;;;4992602;28;20039;-68
2023/07/29 07:55:46;;;;;;;3.65;1.40;;;27.30;62.40;;;;;;4992347;28;20066;-67
2023/07/29 07:58:11;;;;;;;1.73;1.40;;;27.90;60.30;;;;;;4992446;28;20030;-76
2023/07/29 08:00:37;;;;;;;4.68;1.35;;;28.90;59.90;;;;;;4993646;28;20037;-73
2023/07/29 08:03:03;;;;;;;2.50;1.30;;;30.10;56.40;;;;;;4991337;28;20130;-73
2023/07/29 08:05:29;;;;;;;1.58;1.20;;;30.90;54.60;;;;;;4977346;28;20093;-74
2023/07/29 08:07:55;;;;;;;1.65;1.02;;;31.80;52.40;;;;;;4995069;28;20121;-74
2023/07/29 08:10:20;;;;;;;3.00;1.30;;;32.60;49.70;;;;;;4995342;28;20026;-76
2023/07/29 08:12:46;;;;;;;1.13;1.00;;;33.30;48.50;;;;;;4996395;28;20549;-77
2023/07/29 08:15:11;;;;;;;1.75;1.40;;;34.00;47.20;;;;;;4995447;28;20027;-76
2023/07/29 08:17:37;;;;;;;1.45;1.10;;;34.20;45.20;;;;;;4995331;28;20411;-76
2023/07/29 08:20:03;;;;;;;1.40;0.98;;;34.30;43.90;;;;;;4995578;28;20026;-77
2023/07/29 08:22:29;;;;;;;1.95;1.35;;;34.50;43.90;;;;;;4995259;28;20042;-76
2023/07/29 08:24:54;;;;;;;2.13;1.20;;;34.50;43.50;;;;;;4995332;28;20037;-81
2023/07/29 08:27:20;;;;;;;2.22;1.38;;;34.50;43.80;;;;;;4995375;28;20382;-80
2023/07/29 08:29:45;;;;;;;1.15;0.80;;;34.50;44.00;;;;;;4995246;28;20030;-74
2023/07/29 08:32:11;;;;;;;1.90;1.27;;;34.20;44.20;;;;;;4995244;28;20105;-73
2023/07/29 08:34:36;;;;;;;1.40;1.05;;;34.30;44.00;;;;;;4995126;28;20022;-73
2023/07/29 08:37:02;;;;;;;2.00;1.20;;;34.20;42.40;;;;;;4995535;28;20034;-74
2023/07/29 08:39:28;;;;;;;2.08;0.90;;;34.10;43.30;;;;;;4995045;28;20387;-72
2023/07/29 08:42:07;;;;;;;3.75;1.02;;;33.40;43.00;;;;;;4995002;28;20030;-73
2023/07/29 08:44:41;;;;;;;3.22;1.25;;;33.10;44.00;;;;;;4995016;28;20088;-73
2023/07/29 08:47:06;;;;;;;1.50;1.25;;;32.80;44.60;;;;;;4995233;28;20038;-71
2023/07/29 08:49:33;;;;;;;1.50;1.30;;;32.40;45.60;;;;;;4994340;28;20042;-69
2023/07/29 08:52:00;;;;;;;1.15;1.05;;;32.20;45.40;;;;;;4994605;28;20507;-69
2023/07/29 08:54:26;;;;;;;1.30;1.08;;;31.90;45.70;;;;;;4994282;28;20014;-68
2023/07/29 08:56:52;;;;;;;2.47;1.25;;;31.60;46.20;;;;;;4994432;28;20036;-69
2023/07/29 08:59:19;;;;;;;1.17;1.08;;;31.30;46.50;;;;;;4977030;28;20054;-68
2023/07/29 09:01:44;;;;;;;1.75;1.13;;;31.30;47.00;;;;;;4993801;28;20450;-67
2023/07/29 09:04:10;;;;;;;1.27;1.17;;;31.00;47.80;;;;;;4996913;28;20050;-67
2023/07/29 09:06:38;;;;;;;1.48;0.93;;;30.80;47.90;;;;;;4993312;28;20117;-69
2023/07/29 09:09:05;;;;;;;1.83;1.08;;;30.60;48.30;;;;;;4991647;28;20049;-68
2023/07/29 09:11:30;;;;;;;2.15;1.00;;;30.50;48.80;;;;;;4976352;28;20027;-68
2023/07/29 09:13:56;;;;;;;2.58;1.02;;;30.50;48.90;;;;;;4993977;28;20022;-68
2023/07/29 09:16:24;;;;;;;1.10;1.00;;;30.50;49.50;;;;;;4991578;28;20050;-68
2023/07/29 09:18:51;;;;;;;2.33;1.25;;;30.30;49.30;;;;;;4994141;28;20340;-69
2023/07/29 09:21:22;;;;;;;1.55;1.30;;;30.10;49.80;;;;;;4994875;28;20037;-68
2023/07/29 09:23:49;;;;;;;2.20;1.20;;;30.00;50.10;;;;;;4976493;28;20062;-68
2023/07/29 09:26:25;;;;;;;3.47;1.30;;;29.80;50.30;;;;;;4991421;28;20027;-69
2023/07/29 09:28:59;;;;;;;3.05;1.50;;;29.60;50.70;;;;;;4993725;28;20030;-68
2023/07/29 09:31:26;;;;;;;3.15;1.30;;;29.40;51.10;;;;;;4994431;28;20085;-68
2023/07/29 09:33:59;;;;;;;1.25;1.13;;;29.40;52.20;;;;;;4994295;28;20022;-69
2023/07/29 09:36:26;;;;;;;1.42;1.30;;;29.40;51.80;;;;;;4994100;28;20428;-68
2023/07/29 09:38:56;;;;;;;3.08;1.17;;;29.50;51.90;;;;;;4993521;28;20066;-69
2023/07/29 09:41:28;;;;;;;1.60;1.43;;;29.50;51.60;;;;;;4994209;28;20050;-69
2023/07/29 09:43:58;;;;;;;4.50;1.15;;;29.60;51.00;;;;;;4994178;28;20022;-69
2023/07/29 09:46:26;;;;;;;1.23;1.05;;;29.50;51.10;;;;;;4993314;28;20472;-69
2023/07/29 09:48:55;;;;;;;1.23;1.10;;;29.50;50.70;;;;;;4993511;28;20093;-69
2023/07/29 09:51:21;;;;;;;1.20;1.10;;;29.40;51.50;;;;;;4993765;28;20541;-69
2023/07/29 09:53:48;;;;;;;1.30;1.20;;;29.30;51.60;;;;;;4993622;28;20030;-69
2023/07/29 09:56:14;;;;;;;1.38;1.10;;;29.40;51.20;;;;;;4976487;28;20446;-68
2023/07/29 09:58:42;;;;;;;1.65;1.10;;;29.50;51.10;;;;;;4993233;28;20102;-68
2023/07/29 10:01:08;;;;;;;1.17;1.00;;;29.50;50.40;;;;;;4993566;28;20030;-68
2023/07/29 10:03:35;;;;;;;1.50;1.00;;;29.60;50.50;;;;;;4993298;28;20034;-68
2023/07/29 10:06:02;;;;;;;1.70;1.17;;;29.70;50.50;;;;;;4996792;28;20038;-68
2023/07/29 10:08:31;;;;;;;1.70;0.90;;;29.80;49.90;;;;;;5013333;28;20030;-68
2023/07/29 10:10:59;;;;;;;1.58;1.30;;;29.90;50.00;;;;;;5012849;28;20045;-68
2023/07/29 10:13:26;;;;;;;1.45;1.10;;;30.00;49.20;;;;;;4999258;28;20035;-68
2023/07/29 10:15:54;;;;;;;2.92;1.23;;;30.00;49.70;;;;;;4992969;28;20073;-69
2023/07/29 10:18:21;;;;;;;1.50;1.10;;;30.00;49.70;;;;;;4993284;28;20058;-68
2023/07/29 10:20:50;;;;;;;7.15;1.30;;;30.20;49.50;;;;;;4992867;28;20494;-68
2023/07/29 10:23:18;;;;;;;1.30;0.90;;;30.20;48.90;;;;;;4992934;28;20037;-68
2023/07/29 10:25:49;;;;;;;1.63;1.17;;;30.20;48.10;;;;;;4992584;28;20420;-69
2023/07/29 10:28:18;;;;;;;1.95;1.20;;;30.20;48.00;;;;;;4993054;28;20042;-69
2023/07/29 10:30:44;;;;;;;1.30;1.10;;;30.20;48.20;;;;;;4992392;28;20031;-69
2023/07/29 10:33:10;;;;;;;0.98;0.85;;;30.20;48.90;;;;;;4993398;28;20057;-69
2023/07/29 10:35:37;;;;;;;3.00;1.15;;;30.30;48.20;;;;;;4993598;28;20022;-76
2023/07/29 10:38:04;;;;;;;10.40;1.52;;;30.30;47.90;;;;;;4994004;28;20040;-72
2023/07/29 10:40:52;;;;;;;5.53;1.27;;;30.40;48.30;;;;;;4993554;28;20077;-72
2023/07/29 10:43:26;;;;;;;1.25;1.00;;;30.30;48.10;;;;;;4993222;28;20034;-69
2023/07/29 10:45:52;;;;;;;1.40;0.98;;;30.40;47.50;;;;;;4992371;28;20018;-71
2023/07/29 10:48:33;;;;;;;1.42;1.10;;;30.40;47.30;;;;;;4993141;28;20038;-69
2023/07/29 10:51:29;;;;;;;1.48;1.00;;;30.50;47.40;;;;;;4993132;28;20118;-69
2023/07/29 10:53:56;;;;;;;2.83;1.10;;;30.60;45.90;;;;;;4973263;28;20049;-69
2023/07/29 10:56:33;;;;;;;1.20;1.10;;;30.60;45.50;;;;;;4973668;28;20027;-72
2023/07/29 10:59:22;;;;;;;2.92;1.20;;;30.60;45.50;;;;;;4973963;28;20062;-79
2023/07/29 11:01:54;;;;;;;2.40;1.08;;;30.70;45.40;;;;;;4973097;28;20085;-69
2023/07/29 11:04:30;;;;;;;16.52;1.88;;;30.70;45.00;;;;;;4992569;28;20080;-71
2023/07/29 11:07:06;;;;;;;1.60;0.93;;;30.70;45.40;;;;;;4975022;28;20125;-72
2023/07/29 11:09:56;;;;;;;3.33;1.10;;;30.80;45.70;;;;;;5009795;28;20062;-72
2023/07/29 11:12:37;;;;;;;1.50;1.08;;;30.80;45.50;;;;;;5012469;28;20030;-73
2023/07/29 11:15:12;;;;;;;1.23;1.02;;;30.80;45.40;;;;;;4998627;28;20034;-75
2023/07/29 11:17:48;;;;;;;1.63;1.00;;;30.80;45.40;;;;;;4992165;28;20117;-73
2023/07/29 11:20:15;;;;;;;0.80;0.80;;;30.80;44.90;;;;;;4992692;28;20026;-74
2023/07/29 11:22:41;;;;;;;1.00;0.88;;;30.80;45.20;;;;;;4992318;28;20023;-74
2023/07/29 11:25:09;;;;;;;1.02;0.93;;;30.90;45.20;;;;;;4992936;28;20498;-74
2023/07/29 11:27:35;;;;;;;2.30;1.20;;;30.90;45.40;;;;;;4992223;28;20034;-67
2023/07/29 11:30:07;;;;;;;3.72;1.17;;;31.00;45.90;;;;;;4992919;28;20049;-72
2023/07/29 11:32:35;;;;;;;1.20;1.10;;;31.00;46.20;;;;;;4992879;28;20371;-74
2023/07/29 11:35:05;;;;;;;1.20;1.10;;;31.10;47.30;;;;;;4993282;28;20118;-73
2023/07/29 11:37:30;;;;;;;4.10;1.83;;;31.10;46.70;;;;;;4996359;28;20058;-76
2023/07/29 11:39:56;;;;;;;3.47;1.60;;;31.10;46.60;;;;;;4995954;28;20066;-75
2023/07/29 11:42:22;;;;;;;1.50;1.30;;;31.10;46.80;;;;;;4996670;28;20482;-75
2023/07/29 11:44:47;;;;;;;2.72;1.23;;;31.20;46.40;;;;;;4995020;28;20023;-75
2023/07/29 11:47:13;;;;;;;2.10;1.17;;;31.20;46.60;;;;;;4996350;28;20026;-73
2023/07/29 11:49:40;;;;;;;1.42;1.20;;;31.20;47.00;;;;;;4995288;28;20030;-72
2023/07/29 11:52:10;;;;;;;2.90;1.50;;;31.20;46.70;;;;;;4995843;28;20121;-73
2023/07/29 11:54:37;;;;;;;2.40;1.30;;;31.20;46.20;;;;;;4995399;28;20021;-74
2023/07/29 11:57:09;;;;;;;2.63;1.60;;;31.30;47.50;;;;;;4995844;28;20101;-71
2023/07/29 11:59:36;;;;;;;2.35;1.58;;;31.30;46.40;;;;;;4995736;28;20081;-73
2023/07/29 12:02:08;;;;;;;3.70;1.95;;;31.20;46.00;;;;;;5006931;28;20029;-75
2023/07/29 12:04:34;;;;;;;2.38;2.03;;;31.20;46.60;;;;;;4976509;28;20077;-74
2023/07/29 12:07:01;;;;;;;3.35;1.92;;;31.10;46.60;;;;;;4994219;28;20494;-74
2023/07/29 12:09:28;;;;;;;3.25;1.40;;;31.10;46.40;;;;;;4991925;28;20478;-74
2023/07/29 12:11:54;;;;;;;2.17;1.77;;;31.00;46.60;;;;;;4995170;28;20506;-74
2023/07/29 12:14:20;;;;;;;3.10;2.40;;;30.90;46.60;;;;;;4993830;28;20034;-75
2023/07/29 12:16:48;;;;;;;2.78;1.88;;;30.90;47.00;;;;;;4990554;28;20496;-77
2023/07/29 12:19:15;;;;;;;2.13;1.65;;;30.80;46.50;;;;;;4984207;28;20049;-75
2023/07/29 12:21:42;;;;;;;2.47;1.60;;;30.80;49.50;;;;;;4983492;28;20113;-74
2023/07/29 12:24:08;;;;;;;1.27;0.95;;;30.60;52.80;;;;;;4991058;28;20065;-74
2023/07/29 12:26:35;;;;;;;3.33;1.27;;;30.50;46.50;;;;;;4994957;28;20026;-74
2023/07/29 12:29:14;;;;;;;2.90;1.10;;;30.40;47.70;;;;;;4994808;28;20034;-71
2023/07/29 12:31:40;;;;;;;3.35;1.88;;;30.30;46.70;;;;;;4975113;28;20442;-78
2023/07/29 12:34:06;;;;;;;2.67;1.90;;;30.20;48.00;;;;;;4979147;28;20093;-76
2023/07/29 12:36:46;;;;;;;3.13;2.10;;;30.30;49.40;;;;;;4995513;28;20430;-76
2023/07/29 12:39:26;;;;;;;2.17;1.30;;;30.30;48.40;;;;;;4995265;28;20061;-76
2023/07/29 12:41:54;;;;;;;4.40;1.50;;;30.30;46.60;;;;;;4994742;28;20034;-76
2023/07/29 12:44:20;;;;;;;1.92;1.40;;;30.20;46.90;;;;;;4994913;28;20372;-75
2023/07/29 12:46:46;;;;;;;1.63;1.50;;;30.10;47.20;;;;;;4994174;28;20026;-75
2023/07/29 12:49:11;;;;;;;2.53;1.40;;;30.10;47.60;;;;;;4995088;28;20034;-74